sensor_id;sensor_type;location;lat;lon;timestamp;temperature;humidity
23289;DHT22;11813;50.834;4.280;2024-01-10T00:01:18;-1.70;99.90
23289;DHT22;11813;50.834;4.280;2024-01-10T00:03:44;-1.70;99.90
23289;DHT22;11813;50.834;4.280;2024-01-10T00:06:10;-1.70;99.90
23289;DHT22;11813;50.834;4.280;2024-01-10T00:08:36;-1.80;99.90
23289;DHT22;11813;50.834;4.280;2024-01-10T00:11:02;-1.90;99.90
23289;DHT22;11813;50.834;4.280;2024-01-10T00:13:29;-1.90;99.90
23289;DHT22;11813;50.834;4.280;2024-01-10T00:15:54;-1.90;99.90
23289;DHT22;11813;50.834;4.280;2024-01-10T00:18:21;-1.80;99.90
23289;DHT22;11813;50.834;4.280;2024-01-10T00:20:47;-1.90;99.90
23289;DHT22;11813;50.834;4.280;2024-01-10T00:23:13;-2.00;99.90
23289;DHT22;11813;50.834;4.280;2024-01-10T00:25:38;-2.10;99.90
23289;DHT22;11813;50.834;4.280;2024-01-10T00:28:05;-2.00;99.90
23289;DHT22;11813;50.834;4.280;2024-01-10T00:30:30;-2.00;99.90
23289;DHT22;11813;50.834;4.280;2024-01-10T00:32:56;-1.90;99.90
23289;DHT22;11813;50.834;4.280;2024-01-10T00:35:22;-1.80;99.90
23289;DHT22;11813;50.834;4.280;2024-01-10T00:37:48;-1.90;99.90
23289;DHT22;11813;50.834;4.280;2024-01-10T00:40:13;-1.90;99.90
23289;DHT22;11813;50.834;4.280;2024-01-10T00:42:39;-2.00;99.90
23289;DHT22;11813;50.834;4.280;2024-01-10T00:45:05;-2.00;99.90
23289;DHT22;11813;50.834;4.280;2024-01-10T00:47:30;-2.10;99.90
23289;DHT22;11813;50.834;4.280;2024-01-10T00:49:56;-2.10;99.90
23289;DHT22;11813;50.834;4.280;2024-01-10T00:52:22;-2.10;99.90
23289;DHT22;11813;50.834;4.280;2024-01-10T00:54:47;-2.20;99.90
23289;DHT22;11813;50.834;4.280;2024-01-10T00:57:13;-2.20;99.90
23289;DHT22;11813;50.834;4.280;2024-01-10T00:59:40;-2.20;99.90
23289;DHT22;11813;50.834;4.280;2024-01-10T01:02:05;-2.20;99.90
23289;DHT22;11813;50.834;4.280;2024-01-10T01:04:31;-2.20;99.90
23289;DHT22;11813;50.834;4.280;2024-01-10T01:06:57;-2.20;99.90
23289;DHT22;11813;50.834;4.280;2024-01-10T01:09:22;-2.30;99.90
23289;DHT22;11813;50.834;4.280;2024-01-10T01:11:48;-2.40;99.90
23289;DHT22;11813;50.834;4.280;2024-01-10T01:14:14;-2.30;99.90
23289;DHT22;11813;50.834;4.280;2024-01-10T01:16:39;-2.40;99.90
23289;DHT22;11813;50.834;4.280;2024-01-10T01:19:05;-2.30;99.90
23289;DHT22;11813;50.834;4.280;2024-01-10T01:21:30;-2.40;99.90
23289;DHT22;11813;50.834;4.280;2024-01-10T01:23:56;-2.30;99.90
23289;DHT22;11813;50.834;4.280;2024-01-10T01:26:22;-2.30;99.90
23289;DHT22;11813;50.834;4.280;2024-01-10T01:28:47;-2.30;99.90
23289;DHT22;11813;50.834;4.280;2024-01-10T01:31:13;-2.30;99.90
23289;DHT22;11813;50.834;4.280;2024-01-10T01:33:38;-2.30;99.90
23289;DHT22;11813;50.834;4.280;2024-01-10T01:36:05;-2.30;99.90
23289;DHT22;11813;50.834;4.280;2024-01-10T01:38:31;-2.30;99.90
23289;DHT22;11813;50.834;4.280;2024-01-10T01:40:57;-2.10;99.90
23289;DHT22;11813;50.834;4.280;2024-01-10T01:43:24;-2.20;99.90
23289;DHT22;11813;50.834;4.280;2024-01-10T01:45:55;-2.30;99.90
23289;DHT22;11813;50.834;4.280;2024-01-10T01:48:22;-2.30;99.90
23289;DHT22;11813;50.834;4.280;2024-01-10T01:50:50;-2.30;99.90
23289;DHT22;11813;50.834;4.280;2024-01-10T01:53:17;-2.20;99.90
23289;DHT22;11813;50.834;4.280;2024-01-10T01:55:46;-2.30;99.90
23289;DHT22;11813;50.834;4.280;2024-01-10T01:58:12;-2.20;99.90
23289;DHT22;11813;50.834;4.280;2024-01-10T02:00:38;-2.10;99.90
23289;DHT22;11813;50.834;4.280;2024-01-10T02:03:09;-2.20;99.90
23289;DHT22;11813;50.834;4.280;2024-01-10T02:05:35;-2.30;99.90
23289;DHT22;11813;50.834;4.280;2024-01-10T02:08:01;-2.40;99.90
23289;DHT22;11813;50.834;4.280;2024-01-10T02:10:27;-2.40;99.90
23289;DHT22;11813;50.834;4.280;2024-01-10T02:12:53;-2.50;99.90
23289;DHT22;11813;50.834;4.280;2024-01-10T02:15:19;-2.40;99.90
23289;DHT22;11813;50.834;4.280;2024-01-10T02:17:45;-2.30;99.90
23289;DHT22;11813;50.834;4.280;2024-01-10T02:20:15;-2.30;99.90
23289;DHT22;11813;50.834;4.280;2024-01-10T02:22:43;-2.30;99.90
23289;DHT22;11813;50.834;4.280;2024-01-10T02:25:12;-2.40;99.90
23289;DHT22;11813;50.834;4.280;2024-01-10T02:27:42;-2.30;99.90
23289;DHT22;11813;50.834;4.280;2024-01-10T02:30:08;-2.30;99.90
23289;DHT22;11813;50.834;4.280;2024-01-10T02:32:35;-2.20;99.90
23289;DHT22;11813;50.834;4.280;2024-01-10T02:35:01;-2.30;99.90
23289;DHT22;11813;50.834;4.280;2024-01-10T02:37:27;-2.20;99.90
23289;DHT22;11813;50.834;4.280;2024-01-10T02:39:53;-2.20;99.90
23289;DHT22;11813;50.834;4.280;2024-01-10T02:42:18;-2.20;99.90
23289;DHT22;11813;50.834;4.280;2024-01-10T02:44:44;-2.30;99.90
23289;DHT22;11813;50.834;4.280;2024-01-10T02:47:11;-2.30;99.90
23289;DHT22;11813;50.834;4.280;2024-01-10T02:49:37;-2.50;99.90
23289;DHT22;11813;50.834;4.280;2024-01-10T02:52:03;-2.50;99.90
23289;DHT22;11813;50.834;4.280;2024-01-10T02:54:29;-2.50;99.90
23289;DHT22;11813;50.834;4.280;2024-01-10T02:56:55;-2.40;99.90
23289;DHT22;11813;50.834;4.280;2024-01-10T02:59:20;-2.30;99.90
23289;DHT22;11813;50.834;4.280;2024-01-10T03:01:46;-2.40;99.90
23289;DHT22;11813;50.834;4.280;2024-01-10T03:04:11;-2.50;99.90
23289;DHT22;11813;50.834;4.280;2024-01-10T03:06:37;-2.50;99.90
23289;DHT22;11813;50.834;4.280;2024-01-10T03:09:03;-2.60;99.90
23289;DHT22;11813;50.834;4.280;2024-01-10T03:11:28;-2.60;99.90
23289;DHT22;11813;50.834;4.280;2024-01-10T03:14:09;-2.70;99.90
23289;DHT22;11813;50.834;4.280;2024-01-10T03:16:35;-2.60;99.90
23289;DHT22;11813;50.834;4.280;2024-01-10T03:19:01;-2.60;99.90
23289;DHT22;11813;50.834;4.280;2024-01-10T03:21:26;-2.80;99.90
23289;DHT22;11813;50.834;4.280;2024-01-10T03:23:56;-2.70;99.90
23289;DHT22;11813;50.834;4.280;2024-01-10T03:26:25;-2.70;99.90
23289;DHT22;11813;50.834;4.280;2024-01-10T03:28:51;-2.70;99.90
23289;DHT22;11813;50.834;4.280;2024-01-10T03:31:17;-2.70;99.90
23289;DHT22;11813;50.834;4.280;2024-01-10T03:33:43;-2.80;99.90
23289;DHT22;11813;50.834;4.280;2024-01-10T03:36:12;-2.70;99.90
23289;DHT22;11813;50.834;4.280;2024-01-10T03:38:38;-2.80;99.90
23289;DHT22;11813;50.834;4.280;2024-01-10T03:41:03;-2.70;99.90
23289;DHT22;11813;50.834;4.280;2024-01-10T03:43:29;-2.70;99.90
23289;DHT22;11813;50.834;4.280;2024-01-10T03:45:55;-2.70;99.90
23289;DHT22;11813;50.834;4.280;2024-01-10T03:48:20;-2.80;99.90
23289;DHT22;11813;50.834;4.280;2024-01-10T03:50:46;-3.00;99.90
23289;DHT22;11813;50.834;4.280;2024-01-10T03:53:12;-3.00;99.90
23289;DHT22;11813;50.834;4.280;2024-01-10T03:55:37;-3.00;99.90
23289;DHT22;11813;50.834;4.280;2024-01-10T03:58:05;-3.20;99.90
23289;DHT22;11813;50.834;4.280;2024-01-10T04:00:30;-3.30;99.90
23289;DHT22;11813;50.834;4.280;2024-01-10T04:02:56;-3.30;99.90
23289;DHT22;11813;50.834;4.280;2024-01-10T04:05:21;-3.20;99.90
23289;DHT22;11813;50.834;4.280;2024-01-10T04:07:50;-3.20;99.90
23289;DHT22;11813;50.834;4.280;2024-01-10T04:10:15;-3.30;99.90
23289;DHT22;11813;50.834;4.280;2024-01-10T04:12:42;-3.30;99.90
23289;DHT22;11813;50.834;4.280;2024-01-10T04:15:08;-3.10;99.90
23289;DHT22;11813;50.834;4.280;2024-01-10T04:17:33;-3.00;99.90
23289;DHT22;11813;50.834;4.280;2024-01-10T04:19:59;-3.00;99.90
23289;DHT22;11813;50.834;4.280;2024-01-10T04:22:25;-3.10;99.90
23289;DHT22;11813;50.834;4.280;2024-01-10T04:24:51;-3.20;99.90
23289;DHT22;11813;50.834;4.280;2024-01-10T04:27:17;-3.20;99.90
23289;DHT22;11813;50.834;4.280;2024-01-10T04:29:46;-3.10;99.90
23289;DHT22;11813;50.834;4.280;2024-01-10T04:32:11;-3.10;99.90
23289;DHT22;11813;50.834;4.280;2024-01-10T04:34:37;-3.10;99.90
23289;DHT22;11813;50.834;4.280;2024-01-10T04:37:03;-3.00;99.90
23289;DHT22;11813;50.834;4.280;2024-01-10T04:39:28;-2.90;99.90
23289;DHT22;11813;50.834;4.280;2024-01-10T04:41:54;-2.80;99.90
23289;DHT22;11813;50.834;4.280;2024-01-10T04:44:20;-2.80;99.90
23289;DHT22;11813;50.834;4.280;2024-01-10T04:46:46;-2.70;99.90
23289;DHT22;11813;50.834;4.280;2024-01-10T04:49:11;-2.70;99.90
23289;DHT22;11813;50.834;4.280;2024-01-10T04:51:37;-2.80;99.90
23289;DHT22;11813;50.834;4.280;2024-01-10T04:54:03;-2.80;99.90
23289;DHT22;11813;50.834;4.280;2024-01-10T04:56:29;-2.80;99.90
23289;DHT22;11813;50.834;4.280;2024-01-10T04:58:54;-2.90;99.90
23289;DHT22;11813;50.834;4.280;2024-01-10T05:01:20;-2.90;99.90
23289;DHT22;11813;50.834;4.280;2024-01-10T05:03:46;-2.90;99.90
23289;DHT22;11813;50.834;4.280;2024-01-10T05:06:11;-2.90;99.90
23289;DHT22;11813;50.834;4.280;2024-01-10T05:08:37;-2.90;99.90
23289;DHT22;11813;50.834;4.280;2024-01-10T05:11:03;-2.70;99.90
23289;DHT22;11813;50.834;4.280;2024-01-10T05:13:29;-2.80;99.90
23289;DHT22;11813;50.834;4.280;2024-01-10T05:15:54;-2.80;99.90
23289;DHT22;11813;50.834;4.280;2024-01-10T05:18:21;-2.80;99.90
23289;DHT22;11813;50.834;4.280;2024-01-10T05:20:47;-2.80;99.90
23289;DHT22;11813;50.834;4.280;2024-01-10T05:23:13;-2.70;99.90
23289;DHT22;11813;50.834;4.280;2024-01-10T05:25:39;-2.70;99.90
23289;DHT22;11813;50.834;4.280;2024-01-10T05:28:05;-2.80;99.90
23289;DHT22;11813;50.834;4.280;2024-01-10T05:30:31;-2.80;99.90
23289;DHT22;11813;50.834;4.280;2024-01-10T05:32:57;-2.80;99.90
23289;DHT22;11813;50.834;4.280;2024-01-10T05:35:24;-2.80;99.90
23289;DHT22;11813;50.834;4.280;2024-01-10T05:37:51;-2.80;99.90
23289;DHT22;11813;50.834;4.280;2024-01-10T05:40:17;-2.80;99.90
23289;DHT22;11813;50.834;4.280;2024-01-10T05:42:44;-2.70;99.90
23289;DHT22;11813;50.834;4.280;2024-01-10T05:45:09;-2.70;99.90
23289;DHT22;11813;50.834;4.280;2024-01-10T05:47:35;-2.90;99.90
23289;DHT22;11813;50.834;4.280;2024-01-10T05:50:01;-3.00;99.90
23289;DHT22;11813;50.834;4.280;2024-01-10T05:52:27;-3.00;99.90
23289;DHT22;11813;50.834;4.280;2024-01-10T05:54:53;-2.90;99.90
23289;DHT22;11813;50.834;4.280;2024-01-10T05:57:19;-3.00;99.90
23289;DHT22;11813;50.834;4.280;2024-01-10T05:59:46;-3.00;99.90
23289;DHT22;11813;50.834;4.280;2024-01-10T06:02:12;-3.00;99.90
23289;DHT22;11813;50.834;4.280;2024-01-10T06:04:41;-3.00;99.90
23289;DHT22;11813;50.834;4.280;2024-01-10T06:07:06;-3.00;99.90
23289;DHT22;11813;50.834;4.280;2024-01-10T06:09:32;-3.10;99.90
23289;DHT22;11813;50.834;4.280;2024-01-10T06:11:58;-3.00;99.90
23289;DHT22;11813;50.834;4.280;2024-01-10T06:14:23;-3.00;99.90
23289;DHT22;11813;50.834;4.280;2024-01-10T06:16:49;-3.00;99.90
23289;DHT22;11813;50.834;4.280;2024-01-10T06:19:14;-3.10;99.90
23289;DHT22;11813;50.834;4.280;2024-01-10T06:21:40;-3.00;99.90
23289;DHT22;11813;50.834;4.280;2024-01-10T06:24:05;-2.90;99.90
23289;DHT22;11813;50.834;4.280;2024-01-10T06:26:31;-2.90;99.90
23289;DHT22;11813;50.834;4.280;2024-01-10T06:28:57;-2.90;99.90
23289;DHT22;11813;50.834;4.280;2024-01-10T06:31:23;-2.80;99.90
23289;DHT22;11813;50.834;4.280;2024-01-10T06:33:49;-2.80;99.90
23289;DHT22;11813;50.834;4.280;2024-01-10T06:36:14;-2.90;99.90
23289;DHT22;11813;50.834;4.280;2024-01-10T06:38:40;-2.90;99.90
23289;DHT22;11813;50.834;4.280;2024-01-10T06:41:09;-2.90;99.90
23289;DHT22;11813;50.834;4.280;2024-01-10T06:43:38;-2.90;99.90
23289;DHT22;11813;50.834;4.280;2024-01-10T06:46:04;-2.90;99.90
23289;DHT22;11813;50.834;4.280;2024-01-10T06:48:32;-2.80;99.90
23289;DHT22;11813;50.834;4.280;2024-01-10T06:50:58;-2.90;99.90
23289;DHT22;11813;50.834;4.280;2024-01-10T06:53:24;-3.00;99.90
23289;DHT22;11813;50.834;4.280;2024-01-10T06:55:50;-3.00;99.90
23289;DHT22;11813;50.834;4.280;2024-01-10T06:58:16;-3.10;99.90
23289;DHT22;11813;50.834;4.280;2024-01-10T07:00:41;-3.10;99.90
23289;DHT22;11813;50.834;4.280;2024-01-10T07:03:07;-3.10;99.90
23289;DHT22;11813;50.834;4.280;2024-01-10T07:05:33;-3.10;99.90
23289;DHT22;11813;50.834;4.280;2024-01-10T07:07:59;-3.10;99.90
23289;DHT22;11813;50.834;4.280;2024-01-10T07:10:28;-3.00;99.90
23289;DHT22;11813;50.834;4.280;2024-01-10T07:12:54;-3.00;99.90
23289;DHT22;11813;50.834;4.280;2024-01-10T07:15:20;-3.10;99.90
23289;DHT22;11813;50.834;4.280;2024-01-10T07:17:46;-3.00;99.90
23289;DHT22;11813;50.834;4.280;2024-01-10T07:20:12;-3.10;99.90
23289;DHT22;11813;50.834;4.280;2024-01-10T07:22:38;-3.00;99.90
23289;DHT22;11813;50.834;4.280;2024-01-10T07:25:10;-3.00;99.90
23289;DHT22;11813;50.834;4.280;2024-01-10T07:27:36;-3.00;99.90
23289;DHT22;11813;50.834;4.280;2024-01-10T07:30:06;-2.90;99.90
23289;DHT22;11813;50.834;4.280;2024-01-10T07:32:37;-2.90;99.90
23289;DHT22;11813;50.834;4.280;2024-01-10T07:35:02;-2.90;99.90
23289;DHT22;11813;50.834;4.280;2024-01-10T07:37:28;-2.90;99.90
23289;DHT22;11813;50.834;4.280;2024-01-10T07:39:54;-2.90;99.90
23289;DHT22;11813;50.834;4.280;2024-01-10T07:42:19;-2.90;99.90
23289;DHT22;11813;50.834;4.280;2024-01-10T07:44:45;-2.80;99.90
23289;DHT22;11813;50.834;4.280;2024-01-10T07:47:10;-2.80;99.90
23289;DHT22;11813;50.834;4.280;2024-01-10T07:49:36;-2.80;99.90
23289;DHT22;11813;50.834;4.280;2024-01-10T07:52:03;-2.80;99.90
23289;DHT22;11813;50.834;4.280;2024-01-10T07:54:30;-2.80;99.90
23289;DHT22;11813;50.834;4.280;2024-01-10T07:56:58;-2.80;99.90
23289;DHT22;11813;50.834;4.280;2024-01-10T07:59:23;-2.80;99.90
23289;DHT22;11813;50.834;4.280;2024-01-10T08:01:56;-2.70;99.90
23289;DHT22;11813;50.834;4.280;2024-01-10T08:04:24;-2.60;99.90
23289;DHT22;11813;50.834;4.280;2024-01-10T08:06:50;-2.70;99.90
23289;DHT22;11813;50.834;4.280;2024-01-10T08:09:15;-2.60;99.90
23289;DHT22;11813;50.834;4.280;2024-01-10T08:11:41;-2.60;99.90
23289;DHT22;11813;50.834;4.280;2024-01-10T08:14:07;-2.60;99.90
23289;DHT22;11813;50.834;4.280;2024-01-10T08:16:32;-2.70;99.90
23289;DHT22;11813;50.834;4.280;2024-01-10T08:18:58;-2.70;99.90
23289;DHT22;11813;50.834;4.280;2024-01-10T08:21:24;-2.80;99.90
23289;DHT22;11813;50.834;4.280;2024-01-10T08:23:50;-2.80;99.90
23289;DHT22;11813;50.834;4.280;2024-01-10T08:26:16;-2.70;99.90
23289;DHT22;11813;50.834;4.280;2024-01-10T08:28:41;-2.80;99.90
23289;DHT22;11813;50.834;4.280;2024-01-10T08:31:08;-2.80;99.90
23289;DHT22;11813;50.834;4.280;2024-01-10T08:33:34;-2.80;99.90
23289;DHT22;11813;50.834;4.280;2024-01-10T08:35:59;-3.00;99.90
23289;DHT22;11813;50.834;4.280;2024-01-10T08:38:25;-2.90;99.90
23289;DHT22;11813;50.834;4.280;2024-01-10T08:40:50;-2.90;99.90
23289;DHT22;11813;50.834;4.280;2024-01-10T08:43:16;-2.70;99.90
23289;DHT22;11813;50.834;4.280;2024-01-10T08:45:44;-2.60;99.90
23289;DHT22;11813;50.834;4.280;2024-01-10T08:48:09;-2.60;99.90
23289;DHT22;11813;50.834;4.280;2024-01-10T08:50:37;-2.50;99.90
23289;DHT22;11813;50.834;4.280;2024-01-10T08:53:03;-2.70;99.90
23289;DHT22;11813;50.834;4.280;2024-01-10T08:55:31;-2.70;99.90
23289;DHT22;11813;50.834;4.280;2024-01-10T08:57:57;-2.80;99.90
23289;DHT22;11813;50.834;4.280;2024-01-10T09:00:23;-2.70;99.90
23289;DHT22;11813;50.834;4.280;2024-01-10T09:02:50;-2.70;99.90
23289;DHT22;11813;50.834;4.280;2024-01-10T09:05:16;-2.70;99.90
23289;DHT22;11813;50.834;4.280;2024-01-10T09:07:42;-2.60;99.90
23289;DHT22;11813;50.834;4.280;2024-01-10T09:10:10;-2.60;99.90
23289;DHT22;11813;50.834;4.280;2024-01-10T09:12:36;-2.40;99.90
23289;DHT22;11813;50.834;4.280;2024-01-10T09:15:02;-2.40;99.90
23289;DHT22;11813;50.834;4.280;2024-01-10T09:17:28;-2.30;99.90
23289;DHT22;11813;50.834;4.280;2024-01-10T09:19:53;-2.20;99.90
23289;DHT22;11813;50.834;4.280;2024-01-10T09:22:19;-2.20;99.90
23289;DHT22;11813;50.834;4.280;2024-01-10T09:24:45;-2.10;99.90
23289;DHT22;11813;50.834;4.280;2024-01-10T09:27:11;-2.00;99.90
23289;DHT22;11813;50.834;4.280;2024-01-10T09:29:37;-1.90;99.90
23289;DHT22;11813;50.834;4.280;2024-01-10T09:32:03;-1.80;99.90
23289;DHT22;11813;50.834;4.280;2024-01-10T09:34:29;-1.70;99.90
23289;DHT22;11813;50.834;4.280;2024-01-10T09:36:54;-1.70;99.90
23289;DHT22;11813;50.834;4.280;2024-01-10T09:39:20;-1.60;99.90
23289;DHT22;11813;50.834;4.280;2024-01-10T09:41:49;-1.40;99.90
23289;DHT22;11813;50.834;4.280;2024-01-10T09:44:17;-1.20;99.90
23289;DHT22;11813;50.834;4.280;2024-01-10T09:46:51;-1.20;99.90
23289;DHT22;11813;50.834;4.280;2024-01-10T09:49:18;-1.00;99.90
23289;DHT22;11813;50.834;4.280;2024-01-10T09:51:46;-0.90;99.90
23289;DHT22;11813;50.834;4.280;2024-01-10T09:54:13;-0.80;99.90
23289;DHT22;11813;50.834;4.280;2024-01-10T09:56:41;-0.70;99.90
23289;DHT22;11813;50.834;4.280;2024-01-10T09:59:07;-0.70;99.90
23289;DHT22;11813;50.834;4.280;2024-01-10T10:01:37;-0.50;99.90
23289;DHT22;11813;50.834;4.280;2024-01-10T10:04:04;-0.40;99.90
23289;DHT22;11813;50.834;4.280;2024-01-10T10:06:31;-0.10;99.90
23289;DHT22;11813;50.834;4.280;2024-01-10T10:08:57;-0.10;99.90
23289;DHT22;11813;50.834;4.280;2024-01-10T10:11:22;-0.10;99.90
23289;DHT22;11813;50.834;4.280;2024-01-10T10:13:48;-0.20;99.90
23289;DHT22;11813;50.834;4.280;2024-01-10T10:16:23;-0.20;99.90
23289;DHT22;11813;50.834;4.280;2024-01-10T10:18:50;-0.10;99.90
23289;DHT22;11813;50.834;4.280;2024-01-10T10:21:15;0.20;99.90
23289;DHT22;11813;50.834;4.280;2024-01-10T10:23:56;0.40;99.90
23289;DHT22;11813;50.834;4.280;2024-01-10T10:26:22;0.60;99.90
23289;DHT22;11813;50.834;4.280;2024-01-10T10:28:50;0.80;99.90
23289;DHT22;11813;50.834;4.280;2024-01-10T10:31:17;0.90;99.90
23289;DHT22;11813;50.834;4.280;2024-01-10T10:33:44;1.00;99.90
23289;DHT22;11813;50.834;4.280;2024-01-10T10:36:10;1.20;99.90
23289;DHT22;11813;50.834;4.280;2024-01-10T10:38:36;1.30;99.90
23289;DHT22;11813;50.834;4.280;2024-01-10T10:41:05;1.40;99.90
23289;DHT22;11813;50.834;4.280;2024-01-10T10:43:40;1.50;99.90
23289;DHT22;11813;50.834;4.280;2024-01-10T10:46:10;1.50;99.90
23289;DHT22;11813;50.834;4.280;2024-01-10T10:48:38;1.50;99.90
23289;DHT22;11813;50.834;4.280;2024-01-10T10:51:04;1.80;99.90
23289;DHT22;11813;50.834;4.280;2024-01-10T10:53:38;2.00;99.90
23289;DHT22;11813;50.834;4.280;2024-01-10T10:56:05;2.10;99.90
23289;DHT22;11813;50.834;4.280;2024-01-10T10:58:39;2.20;99.90
23289;DHT22;11813;50.834;4.280;2024-01-10T11:01:05;2.40;99.90
23289;DHT22;11813;50.834;4.280;2024-01-10T11:03:36;2.60;99.90
23289;DHT22;11813;50.834;4.280;2024-01-10T11:06:05;2.50;99.90
23289;DHT22;11813;50.834;4.280;2024-01-10T11:14:16;3.00;99.90
23289;DHT22;11813;50.834;4.280;2024-01-10T11:25:43;2.80;99.90
23289;DHT22;11813;50.834;4.280;2024-01-10T11:28:08;2.80;99.90
23289;DHT22;11813;50.834;4.280;2024-01-10T11:30:48;2.80;99.90
23289;DHT22;11813;50.834;4.280;2024-01-10T11:33:33;2.90;99.90
23289;DHT22;11813;50.834;4.280;2024-01-10T11:46:41;3.20;99.90
23289;DHT22;11813;50.834;4.280;2024-01-10T11:49:11;3.30;99.90
23289;DHT22;11813;50.834;4.280;2024-01-10T11:51:47;3.60;99.90
23289;DHT22;11813;50.834;4.280;2024-01-10T11:54:44;4.00;99.90
23289;DHT22;11813;50.834;4.280;2024-01-10T11:57:27;4.10;99.90
23289;DHT22;11813;50.834;4.280;2024-01-10T11:59:56;4.10;99.90
23289;DHT22;11813;50.834;4.280;2024-01-10T12:02:24;4.30;99.90
23289;DHT22;11813;50.834;4.280;2024-01-10T12:04:54;4.40;99.90
23289;DHT22;11813;50.834;4.280;2024-01-10T12:07:19;4.60;99.90
23289;DHT22;11813;50.834;4.280;2024-01-10T12:09:48;5.00;99.90
23289;DHT22;11813;50.834;4.280;2024-01-10T12:12:14;5.20;99.90
23289;DHT22;11813;50.834;4.280;2024-01-10T12:14:41;5.20;99.90
23289;DHT22;11813;50.834;4.280;2024-01-10T12:17:07;5.20;99.90
23289;DHT22;11813;50.834;4.280;2024-01-10T12:19:36;5.30;99.90
23289;DHT22;11813;50.834;4.280;2024-01-10T12:22:05;4.80;99.90
23289;DHT22;11813;50.834;4.280;2024-01-10T12:24:31;4.70;99.90
23289;DHT22;11813;50.834;4.280;2024-01-10T12:26:57;4.60;99.90
23289;DHT22;11813;50.834;4.280;2024-01-10T12:29:23;4.60;99.90
23289;DHT22;11813;50.834;4.280;2024-01-10T12:31:51;4.50;99.90
23289;DHT22;11813;50.834;4.280;2024-01-10T12:34:16;4.60;99.90
23289;DHT22;11813;50.834;4.280;2024-01-10T12:36:42;4.50;99.90
23289;DHT22;11813;50.834;4.280;2024-01-10T12:39:09;4.40;99.90
23289;DHT22;11813;50.834;4.280;2024-01-10T12:41:35;4.20;99.90
23289;DHT22;11813;50.834;4.280;2024-01-10T12:44:01;4.00;99.90
23289;DHT22;11813;50.834;4.280;2024-01-10T12:46:31;4.10;99.90
23289;DHT22;11813;50.834;4.280;2024-01-10T12:49:01;4.20;99.90
23289;DHT22;11813;50.834;4.280;2024-01-10T12:51:28;4.30;99.90
23289;DHT22;11813;50.834;4.280;2024-01-10T12:53:55;4.40;99.90
23289;DHT22;11813;50.834;4.280;2024-01-10T12:56:21;4.40;99.90
23289;DHT22;11813;50.834;4.280;2024-01-10T12:58:47;4.50;99.90
23289;DHT22;11813;50.834;4.280;2024-01-10T13:01:13;4.50;99.90
23289;DHT22;11813;50.834;4.280;2024-01-10T13:03:39;4.70;99.90
23289;DHT22;11813;50.834;4.280;2024-01-10T13:06:05;4.80;99.90
23289;DHT22;11813;50.834;4.280;2024-01-10T13:08:31;5.10;99.90
23289;DHT22;11813;50.834;4.280;2024-01-10T13:11:00;5.30;99.90
23289;DHT22;11813;50.834;4.280;2024-01-10T13:13:25;5.50;99.90
23289;DHT22;11813;50.834;4.280;2024-01-10T13:15:51;5.70;99.90
23289;DHT22;11813;50.834;4.280;2024-01-10T13:18:17;5.80;99.90
23289;DHT22;11813;50.834;4.280;2024-01-10T13:20:44;6.00;99.90
23289;DHT22;11813;50.834;4.280;2024-01-10T13:23:10;6.30;99.90
23289;DHT22;11813;50.834;4.280;2024-01-10T13:25:36;6.40;99.90
23289;DHT22;11813;50.834;4.280;2024-01-10T13:28:03;6.60;99.90
23289;DHT22;11813;50.834;4.280;2024-01-10T13:30:30;6.80;99.90
23289;DHT22;11813;50.834;4.280;2024-01-10T13:32:56;7.20;99.90
23289;DHT22;11813;50.834;4.280;2024-01-10T13:35:23;7.50;99.90
23289;DHT22;11813;50.834;4.280;2024-01-10T13:37:49;7.80;99.90
23289;DHT22;11813;50.834;4.280;2024-01-10T13:40:15;8.10;99.90
23289;DHT22;11813;50.834;4.280;2024-01-10T13:42:42;8.10;99.90
23289;DHT22;11813;50.834;4.280;2024-01-10T13:45:09;8.10;99.90
23289;DHT22;11813;50.834;4.280;2024-01-10T13:47:38;8.00;99.90
23289;DHT22;11813;50.834;4.280;2024-01-10T13:50:05;8.00;99.90
23289;DHT22;11813;50.834;4.280;2024-01-10T13:52:34;8.00;99.90
23289;DHT22;11813;50.834;4.280;2024-01-10T13:55:01;8.00;99.90
23289;DHT22;11813;50.834;4.280;2024-01-10T13:57:27;8.20;99.90
23289;DHT22;11813;50.834;4.280;2024-01-10T13:59:52;8.10;99.90
23289;DHT22;11813;50.834;4.280;2024-01-10T14:02:24;8.00;99.90
23289;DHT22;11813;50.834;4.280;2024-01-10T14:04:50;8.10;99.90
23289;DHT22;11813;50.834;4.280;2024-01-10T14:07:16;8.20;99.90
23289;DHT22;11813;50.834;4.280;2024-01-10T14:09:41;7.90;99.90
23289;DHT22;11813;50.834;4.280;2024-01-10T14:12:07;7.10;99.90
23289;DHT22;11813;50.834;4.280;2024-01-10T14:14:32;6.80;99.90
23289;DHT22;11813;50.834;4.280;2024-01-10T14:16:58;6.50;99.90
23289;DHT22;11813;50.834;4.280;2024-01-10T14:19:24;5.90;99.90
23289;DHT22;11813;50.834;4.280;2024-01-10T14:21:49;5.80;99.90
23289;DHT22;11813;50.834;4.280;2024-01-10T14:24:15;5.60;99.90
23289;DHT22;11813;50.834;4.280;2024-01-10T14:26:41;5.40;99.90
23289;DHT22;11813;50.834;4.280;2024-01-10T14:29:07;5.20;99.90
23289;DHT22;11813;50.834;4.280;2024-01-10T14:31:32;4.90;99.90
23289;DHT22;11813;50.834;4.280;2024-01-10T14:33:58;4.40;99.90
23289;DHT22;11813;50.834;4.280;2024-01-10T14:36:24;4.40;99.90
23289;DHT22;11813;50.834;4.280;2024-01-10T14:38:50;4.30;99.90
23289;DHT22;11813;50.834;4.280;2024-01-10T14:41:16;4.20;99.90
23289;DHT22;11813;50.834;4.280;2024-01-10T14:43:41;4.20;99.90
23289;DHT22;11813;50.834;4.280;2024-01-10T14:46:07;4.20;99.90
23289;DHT22;11813;50.834;4.280;2024-01-10T14:48:33;4.10;99.90
23289;DHT22;11813;50.834;4.280;2024-01-10T14:50:59;4.20;99.90
23289;DHT22;11813;50.834;4.280;2024-01-10T14:53:26;4.20;99.90
23289;DHT22;11813;50.834;4.280;2024-01-10T14:55:51;4.00;99.90
23289;DHT22;11813;50.834;4.280;2024-01-10T14:58:18;4.00;99.90
23289;DHT22;11813;50.834;4.280;2024-01-10T15:00:44;3.90;99.90
23289;DHT22;11813;50.834;4.280;2024-01-10T15:03:09;3.70;99.90
23289;DHT22;11813;50.834;4.280;2024-01-10T15:05:36;3.60;99.90
23289;DHT22;11813;50.834;4.280;2024-01-10T15:08:02;3.60;99.90
23289;DHT22;11813;50.834;4.280;2024-01-10T15:10:28;3.60;99.90
23289;DHT22;11813;50.834;4.280;2024-01-10T15:12:53;3.60;99.90
23289;DHT22;11813;50.834;4.280;2024-01-10T15:15:19;3.50;99.90
23289;DHT22;11813;50.834;4.280;2024-01-10T15:17:45;3.40;99.90
23289;DHT22;11813;50.834;4.280;2024-01-10T15:20:11;3.30;99.90
23289;DHT22;11813;50.834;4.280;2024-01-10T15:22:36;3.10;99.90
23289;DHT22;11813;50.834;4.280;2024-01-10T15:25:06;3.00;99.90
23289;DHT22;11813;50.834;4.280;2024-01-10T15:27:32;2.80;99.90
23289;DHT22;11813;50.834;4.280;2024-01-10T15:29:58;2.80;99.90
23289;DHT22;11813;50.834;4.280;2024-01-10T15:32:24;2.70;99.90
23289;DHT22;11813;50.834;4.280;2024-01-10T15:34:50;2.70;99.90
23289;DHT22;11813;50.834;4.280;2024-01-10T15:37:15;2.70;99.90
23289;DHT22;11813;50.834;4.280;2024-01-10T15:39:41;2.70;99.90
23289;DHT22;11813;50.834;4.280;2024-01-10T15:42:07;2.60;99.90
23289;DHT22;11813;50.834;4.280;2024-01-10T15:44:38;2.70;99.90
23289;DHT22;11813;50.834;4.280;2024-01-10T15:47:05;2.60;99.90
23289;DHT22;11813;50.834;4.280;2024-01-10T15:49:31;2.60;99.90
23289;DHT22;11813;50.834;4.280;2024-01-10T15:51:56;2.70;99.90
23289;DHT22;11813;50.834;4.280;2024-01-10T15:54:22;2.60;99.90
23289;DHT22;11813;50.834;4.280;2024-01-10T15:56:48;2.60;99.90